createdAt,value
2023-04-09T00:00:46.265Z,3.53
2023-04-09T00:03:47.669Z,3.92
2023-04-09T00:06:49.126Z,3.83
2023-04-09T00:09:50.403Z,3.58
2023-04-09T00:12:51.719Z,3.55
2023-04-09T00:15:53.002Z,3.53
2023-04-09T00:18:54.375Z,3.72
2023-04-09T00:21:56.179Z,2.42
2023-04-09T00:24:57.603Z,2.65
2023-04-09T00:27:59.065Z,3.33
2023-04-09T00:31:00.459Z,2.85
2023-04-09T00:34:01.750Z,3.80
2023-04-09T00:37:03.104Z,3.33
2023-04-09T00:40:04.634Z,3.28
2023-04-09T00:43:06.681Z,2.83
2023-04-09T00:46:08.024Z,4.10
2023-04-09T00:49:09.362Z,3.63
2023-04-09T00:52:10.959Z,3.13
2023-04-09T00:55:12.451Z,4.53
2023-04-09T00:58:13.954Z,3.78
2023-04-09T01:01:15.555Z,3.28
2023-04-09T01:04:17.183Z,3.63
2023-04-09T01:07:33.482Z,3.88
2023-04-09T01:10:40.759Z,2.50
2023-04-09T01:13:45.173Z,3.20
2023-04-09T01:16:48.792Z,4.03
2023-04-09T01:20:02.306Z,3.40
2023-04-09T01:23:26.808Z,3.03
2023-04-09T01:29:36.997Z,2.50
2023-04-09T01:32:38.886Z,3.53
2023-04-09T01:35:42.783Z,3.78
2023-04-09T01:38:44.807Z,3.95
2023-04-09T01:41:46.574Z,3.65
2023-04-09T01:44:48.140Z,3.28
2023-04-09T01:47:49.614Z,4.35
2023-04-09T01:50:51.452Z,4.05
2023-04-09T01:53:52.829Z,3.60
2023-04-09T01:56:54.069Z,3.35
2023-04-09T01:59:55.349Z,3.72
2023-04-09T02:03:01.024Z,3.83
2023-04-09T02:06:17.068Z,3.88
2023-04-09T02:09:20.239Z,3.03
2023-04-09T02:12:22.030Z,2.88
2023-04-09T02:15:23.977Z,3.00
2023-04-09T02:18:27.320Z,4.68
2023-04-09T02:21:29.446Z,3.72
2023-04-09T02:24:30.926Z,3.50
2023-04-09T02:27:32.242Z,5.45
2023-04-09T02:30:33.514Z,4.43
2023-04-09T02:33:34.785Z,4.28
2023-04-09T02:36:36.083Z,3.70
2023-04-09T02:39:37.322Z,4.03
2023-04-09T02:42:38.565Z,4.60
2023-04-09T02:45:39.901Z,3.75
2023-04-09T02:48:41.204Z,4.35
2023-04-09T02:51:42.487Z,3.95
2023-04-09T02:54:43.708Z,4.10
2023-04-09T02:57:44.972Z,3.53
2023-04-09T03:00:46.195Z,4.05
2023-04-09T03:03:47.860Z,4.28
2023-04-09T03:06:50.289Z,6.20
2023-04-09T03:09:51.747Z,3.20
2023-04-09T03:12:53.133Z,3.97
2023-04-09T03:15:54.487Z,4.50
2023-04-09T03:18:55.907Z,3.50
2023-04-09T03:21:57.215Z,4.20
2023-04-09T03:24:58.461Z,4.95
2023-04-09T03:27:59.684Z,5.18
2023-04-09T03:31:01.028Z,5.13
2023-04-09T03:34:02.380Z,3.75
2023-04-09T03:37:03.705Z,5.60
2023-04-09T03:40:05.263Z,4.40
2023-04-09T03:43:06.551Z,6.25
2023-04-09T03:46:17.592Z,5.80
2023-04-09T03:49:18.937Z,5.47
2023-04-09T03:52:20.299Z,4.57
2023-04-09T03:55:21.702Z,3.85
2023-04-09T03:58:23.071Z,3.53
2023-04-09T04:01:24.459Z,4.15
2023-04-09T04:04:25.905Z,4.35
2023-04-09T04:07:27.220Z,4.22
2023-04-09T04:10:28.530Z,5.15
2023-04-09T04:13:29.895Z,4.85
2023-04-09T04:16:32.301Z,4.15
2023-04-09T04:19:33.602Z,5.30
2023-04-09T04:22:35.700Z,4.68
2023-04-09T04:25:36.995Z,4.75
2023-04-09T04:28:38.869Z,4.25
2023-04-09T04:31:40.254Z,5.05
2023-04-09T04:34:41.759Z,5.13
2023-04-09T04:37:43.038Z,4.20
2023-04-09T04:40:44.342Z,4.22
2023-04-09T04:43:46.887Z,4.97
2023-04-09T04:46:48.181Z,4.85
2023-04-09T04:49:49.454Z,4.75
2023-04-09T04:52:50.783Z,4.63
2023-04-09T04:55:52.125Z,5.03
2023-04-09T04:58:53.617Z,5.20
2023-04-09T05:01:55.394Z,4.95
2023-04-09T05:04:56.813Z,4.13
2023-04-09T05:07:58.111Z,4.88
2023-04-09T05:10:59.380Z,4.15
2023-04-09T05:14:00.797Z,4.57
2023-04-09T05:17:02.188Z,4.50
2023-04-09T05:20:03.555Z,6.43
2023-04-09T05:23:04.882Z,5.00
2023-04-09T05:26:06.499Z,5.50
2023-04-09T05:29:07.783Z,5.13
2023-04-09T05:32:09.437Z,4.82
2023-04-09T05:35:10.816Z,4.07
2023-04-09T05:38:13.681Z,4.40
2023-04-09T05:41:14.949Z,5.05
2023-04-09T05:44:16.206Z,5.30
2023-04-09T05:47:17.618Z,4.95
2023-04-09T05:50:18.878Z,5.38
2023-04-09T05:53:20.516Z,6.40
2023-04-09T05:56:25.077Z,4.97
2023-04-09T05:59:27.048Z,4.38
2023-04-09T06:02:28.824Z,4.70
2023-04-09T06:05:30.248Z,5.20
2023-04-09T06:08:34.262Z,5.32
2023-04-09T06:11:35.670Z,5.30
2023-04-09T06:14:36.968Z,5.78
2023-04-09T06:17:38.317Z,5.45
2023-04-09T06:20:39.621Z,5.43
2023-04-09T06:23:41.044Z,4.95
2023-04-09T06:26:42.351Z,4.35
2023-04-09T06:29:43.634Z,4.10
2023-04-09T06:32:54.548Z,4.22
2023-04-09T06:35:56.759Z,5.45
2023-04-09T06:38:59.027Z,5.10
2023-04-09T06:42:00.323Z,5.07
2023-04-09T06:45:01.601Z,5.75
2023-04-09T06:48:03.446Z,5.30
2023-04-09T06:51:06.403Z,5.38
2023-04-09T06:54:07.695Z,5.32
2023-04-09T06:57:08.970Z,4.38
2023-04-09T07:00:10.555Z,5.45
2023-04-09T07:03:11.925Z,5.15
2023-04-09T07:06:13.284Z,5.47
2023-04-09T07:09:14.849Z,7.15
2023-04-09T07:12:25.818Z,5.45
2023-04-09T07:15:27.135Z,5.35
2023-04-09T07:18:28.378Z,5.78
2023-04-09T07:21:29.728Z,5.47
2023-04-09T07:24:31.127Z,5.47
2023-04-09T07:27:32.523Z,5.53
2023-04-09T07:30:33.753Z,5.57
2023-04-09T07:33:35.228Z,6.28
2023-04-09T07:36:36.509Z,5.97
2023-04-09T07:39:37.990Z,5.65
2023-04-09T07:42:39.699Z,6.40
2023-04-09T07:45:41.019Z,5.65
2023-04-09T07:48:42.291Z,5.88
2023-04-09T07:51:43.697Z,5.68
2023-04-09T07:54:45.121Z,5.90
2023-04-09T07:57:46.557Z,6.13
2023-04-09T08:00:48.547Z,6.50
2023-04-09T08:03:50.354Z,5.57
2023-04-09T08:06:51.809Z,5.78
2023-04-09T08:09:53.106Z,6.10
2023-04-09T08:12:54.391Z,5.93
2023-04-09T08:15:55.766Z,6.07
2023-04-09T08:18:57.330Z,6.05
2023-04-09T08:21:58.729Z,6.10
2023-04-09T08:25:02.554Z,5.05
2023-04-09T08:28:04.468Z,6.40
2023-04-09T08:31:06.136Z,4.93
2023-04-09T08:34:07.598Z,5.80
2023-04-09T08:37:08.879Z,5.32
2023-04-09T08:40:11.516Z,5.55
2023-04-09T08:43:15.573Z,4.97
2023-04-09T08:46:17.322Z,5.97
2023-04-09T08:49:19.023Z,3.90
2023-04-09T08:52:29.820Z,4.75
2023-04-09T08:55:31.390Z,5.10
2023-04-09T08:58:34.406Z,5.03
2023-04-09T09:01:35.953Z,5.22
2023-04-09T09:04:43.911Z,5.78
2023-04-09T09:07:54.339Z,5.47
2023-04-09T09:10:55.907Z,5.25
2023-04-09T09:13:58.020Z,5.15
2023-04-09T09:16:59.538Z,5.38
2023-04-09T09:20:18.507Z,5.63
2023-04-09T09:23:34.138Z,5.25
2023-04-09T09:26:38.200Z,5.45
2023-04-09T09:29:41.935Z,5.35
2023-04-09T09:32:43.627Z,4.47
2023-04-09T09:35:48.885Z,4.28
2023-04-09T09:38:56.993Z,3.92
2023-04-09T09:42:08.047Z,4.22
2023-04-09T09:45:19.558Z,3.83
2023-04-09T09:48:20.824Z,3.70
2023-04-09T09:51:25.043Z,3.90
2023-04-09T09:54:27.129Z,3.90
2023-04-09T09:57:31.239Z,4.00
2023-04-09T10:00:32.936Z,4.03
2023-04-09T10:03:34.827Z,4.53
2023-04-09T10:06:37.185Z,4.32
2023-04-09T10:09:41.028Z,4.22
2023-04-09T10:12:43.556Z,4.63
2023-04-09T10:15:45.033Z,4.35
2023-04-09T10:18:46.394Z,4.82
2023-04-09T10:21:53.705Z,4.05
2023-04-09T10:24:55.838Z,3.78
2023-04-09T10:28:01.131Z,3.97
2023-04-09T10:31:04.068Z,4.90
2023-04-09T10:34:05.407Z,3.55
2023-04-09T10:37:08.442Z,5.07
2023-04-09T10:40:18.447Z,4.32
2023-04-09T10:43:23.533Z,4.00
2023-04-09T10:46:29.360Z,4.10
2023-04-09T10:49:36.075Z,4.68
2023-04-09T10:52:40.683Z,3.83
2023-04-09T10:55:47.964Z,3.63
2023-04-09T10:58:49.241Z,3.72
2023-04-09T11:01:54.535Z,3.80
2023-04-09T11:05:11.213Z,4.30
2023-04-09T11:08:13.389Z,4.35
2023-04-09T11:11:14.651Z,3.72
2023-04-09T11:14:19.594Z,4.53
2023-04-09T11:17:21.233Z,4.18
2023-04-09T11:20:25.784Z,3.80
2023-04-09T11:23:27.229Z,4.43
2023-04-09T11:26:37.674Z,5.15
2023-04-09T11:29:39.201Z,3.92
2023-04-09T11:32:40.625Z,3.72
2023-04-09T11:35:42.095Z,3.63
2023-04-09T11:38:43.403Z,3.53
2023-04-09T11:41:44.720Z,3.80
2023-04-09T11:44:46.839Z,3.50
2023-04-09T11:47:48.669Z,3.30
2023-04-09T11:50:50.635Z,4.10
2023-04-09T11:53:51.878Z,3.45
2023-04-09T11:56:55.997Z,3.65
2023-04-09T11:59:57.451Z,2.88
2023-04-09T12:03:01.013Z,3.00
2023-04-09T12:06:03.147Z,2.85
2023-04-09T12:09:04.622Z,3.38
2023-04-09T12:12:08.869Z,3.05
2023-04-09T12:15:11.601Z,3.53
2023-04-09T12:18:13.545Z,3.10
2023-04-09T12:21:14.875Z,3.40
2023-04-09T12:24:19.750Z,3.25
2023-04-09T12:27:21.065Z,2.83
2023-04-09T12:30:23.143Z,3.85
2023-04-09T12:33:24.373Z,3.22
2023-04-09T12:36:26.535Z,2.88
2023-04-09T12:39:27.824Z,3.10
2023-04-09T12:42:29.231Z,3.20
2023-04-09T12:45:30.889Z,3.30
2023-04-09T12:48:32.726Z,3.00
2023-04-09T12:51:34.037Z,3.08
2023-04-09T12:54:35.821Z,4.00
2023-04-09T12:57:37.631Z,3.70
2023-04-09T13:00:38.939Z,3.50
2023-04-09T13:03:41.450Z,3.40
2023-04-09T13:06:43.121Z,3.67
2023-04-09T13:09:48.895Z,3.50
2023-04-09T13:12:50.206Z,3.40
2023-04-09T13:15:52.179Z,2.95
2023-04-09T13:18:53.530Z,3.08
2023-04-09T13:21:55.079Z,3.28
2023-04-09T13:24:56.318Z,3.33
2023-04-09T13:27:57.663Z,3.35
2023-04-09T13:30:58.933Z,3.88
2023-04-09T13:34:00.838Z,3.83
2023-04-09T13:37:02.784Z,3.00
2023-04-09T13:40:04.284Z,2.63
2023-04-09T13:43:05.705Z,3.05
2023-04-09T13:46:07.143Z,3.25
2023-04-09T13:49:08.445Z,3.33
2023-04-09T13:52:10.614Z,2.72
2023-04-09T13:55:11.964Z,3.35
2023-04-09T13:58:13.251Z,2.55
2023-04-09T14:01:14.597Z,2.70
2023-04-09T14:04:16.001Z,2.92
2023-04-09T14:07:17.341Z,2.70
2023-04-09T14:10:18.564Z,2.78
2023-04-09T14:13:19.856Z,2.65
2023-04-09T14:16:21.330Z,2.80
2023-04-09T14:19:22.775Z,2.65
2023-04-09T14:22:24.134Z,2.75
2023-04-09T14:25:25.407Z,2.58
2023-04-09T14:28:27.218Z,1.90
2023-04-09T14:31:28.557Z,2.55
2023-04-09T14:34:31.038Z,2.15
2023-04-09T14:37:32.328Z,2.33
2023-04-09T14:40:33.637Z,2.67
2023-04-09T14:43:34.897Z,2.40
2023-04-09T14:46:36.734Z,2.53
2023-04-09T14:49:38.067Z,2.78
2023-04-09T14:52:39.428Z,2.30
2023-04-09T14:55:40.903Z,2.20
2023-04-09T14:58:42.515Z,2.70
2023-04-09T15:01:43.887Z,2.28
2023-04-09T15:04:45.576Z,2.63
2023-04-09T15:07:47.101Z,2.45
2023-04-09T15:10:48.395Z,3.83
2023-04-09T15:13:51.141Z,2.40
2023-04-09T15:16:55.845Z,2.75
2023-04-09T15:19:58.296Z,2.90
2023-04-09T15:22:59.642Z,2.50
2023-04-09T15:26:00.918Z,3.13
2023-04-09T15:29:06.393Z,2.70
2023-04-09T15:32:07.852Z,2.25
2023-04-09T15:35:09.172Z,2.38
2023-04-09T15:38:10.515Z,1.85
2023-04-09T15:41:11.894Z,2.80
2023-04-09T15:44:13.173Z,2.13
2023-04-09T15:47:14.516Z,2.30
2023-04-09T15:50:16.031Z,2.58
2023-04-09T15:53:17.302Z,2.33
2023-04-09T15:56:19.677Z,3.00
2023-04-09T15:59:21.023Z,2.03
2023-04-09T16:02:24.129Z,2.38
2023-04-09T16:05:27.265Z,2.10
2023-04-09T16:08:28.565Z,2.55
2023-04-09T16:11:29.904Z,2.38
2023-04-09T16:14:31.188Z,2.03
2023-04-09T16:17:34.526Z,2.17
2023-04-09T16:20:40.430Z,2.30
2023-04-09T16:23:41.794Z,2.33
2023-04-09T16:26:44.198Z,2.53
2023-04-09T16:29:46.140Z,3.65
2023-04-09T16:32:47.455Z,2.53
2023-04-09T16:35:48.839Z,2.72
2023-04-09T16:38:50.562Z,3.38
2023-04-09T16:41:52.213Z,2.22
2023-04-09T16:44:54.266Z,2.25
2023-04-09T16:47:56.150Z,2.13
2023-04-09T16:50:57.531Z,2.15
2023-04-09T16:53:58.853Z,2.67
2023-04-09T16:57:01.810Z,2.67
2023-04-09T17:00:05.347Z,3.60
2023-04-09T17:03:06.834Z,3.25
2023-04-09T17:06:08.343Z,2.65
2023-04-09T17:09:09.635Z,2.13
2023-04-09T17:12:11.325Z,2.17
2023-04-09T17:15:12.739Z,2.33
2023-04-09T17:18:14.073Z,2.40
2023-04-09T17:21:15.421Z,2.55
2023-04-09T17:24:16.840Z,3.13
2023-04-09T17:27:19.628Z,3.85
2023-04-09T17:30:21.189Z,3.83
2023-04-09T17:33:22.626Z,3.45
2023-04-09T17:36:24.217Z,3.03
2023-04-09T17:39:26.367Z,2.67
2023-04-09T17:42:28.885Z,2.63
2023-04-09T17:45:30.264Z,2.30
2023-04-09T17:48:32.145Z,2.35
2023-04-09T17:51:33.845Z,2.40
2023-04-09T17:54:35.667Z,2.33
2023-04-09T17:57:37.020Z,2.55
2023-04-09T18:00:39.251Z,2.80
2023-04-09T18:03:42.446Z,2.35
2023-04-09T18:06:44.444Z,3.30
2023-04-09T18:09:46.201Z,2.72
2023-04-09T18:12:47.521Z,3.30
2023-04-09T18:15:49.177Z,2.88
2023-04-09T18:18:50.627Z,3.15
2023-04-09T18:21:51.960Z,2.42
2023-04-09T18:24:53.307Z,2.42
2023-04-09T18:27:54.713Z,2.40
2023-04-09T18:30:56.165Z,2.35
2023-04-09T18:33:57.463Z,3.58
2023-04-09T18:36:58.773Z,3.30
2023-04-09T18:40:01.980Z,2.67
2023-04-09T18:43:03.976Z,3.33
2023-04-09T18:46:05.874Z,3.92
2023-04-09T18:49:07.459Z,3.72
2023-04-09T18:52:10.195Z,3.53
2023-04-09T18:55:11.762Z,3.60
2023-04-09T18:58:14.840Z,3.17
2023-04-09T19:01:17.595Z,2.85
2023-04-09T19:04:19.040Z,3.03
2023-04-09T19:07:20.467Z,3.58
2023-04-09T19:10:21.820Z,4.75
2023-04-09T19:13:23.105Z,4.82
2023-04-09T19:16:24.516Z,3.83
2023-04-09T19:19:26.192Z,5.43
2023-04-09T19:22:28.071Z,4.07
2023-04-09T19:25:29.482Z,4.47
2023-04-09T19:28:31.095Z,5.53
2023-04-09T19:31:32.577Z,4.13
2023-04-09T19:34:33.988Z,3.92
2023-04-09T19:37:35.581Z,4.63
2023-04-09T19:40:37.031Z,4.82
2023-04-09T19:43:39.377Z,3.72
2023-04-09T19:46:41.028Z,3.85
2023-04-09T19:49:42.490Z,3.50
2023-04-09T19:52:43.788Z,4.82
2023-04-09T19:55:45.218Z,4.05
2023-04-09T19:58:46.688Z,4.57
2023-04-09T20:01:48.540Z,3.90
2023-04-09T20:04:50.563Z,3.85
2023-04-09T20:07:52.886Z,3.72
2023-04-09T20:10:54.297Z,4.40
2023-04-09T20:13:57.135Z,3.92
2023-04-09T20:16:58.609Z,3.65
2023-04-09T20:19:59.987Z,3.42
2023-04-09T20:23:01.829Z,4.13
2023-04-09T20:26:03.231Z,4.13
2023-04-09T20:29:04.544Z,3.60
2023-04-09T20:32:06.443Z,3.20
2023-04-09T20:35:08.435Z,3.00
2023-04-09T20:38:09.754Z,3.58
2023-04-09T20:41:11.311Z,4.55
2023-04-09T20:44:12.599Z,3.53
2023-04-09T20:47:15.432Z,4.18
2023-04-09T20:50:17.344Z,3.60
2023-04-09T20:53:19.148Z,3.85
2023-04-09T20:56:20.432Z,4.00
2023-04-09T20:59:21.837Z,4.05
2023-04-09T21:02:23.661Z,3.22
2023-04-09T21:05:25.228Z,4.25
2023-04-09T21:08:26.765Z,3.80
2023-04-09T21:11:29.496Z,3.60
2023-04-09T21:14:31.536Z,3.35
2023-04-09T21:17:33.004Z,2.83
2023-04-09T21:20:34.345Z,5.30
2023-04-09T21:23:35.652Z,3.95
2023-04-09T21:26:50.038Z,3.92
2023-04-09T21:29:53.623Z,2.70
2023-04-09T21:32:55.305Z,4.18
2023-04-09T21:35:57.017Z,2.85
2023-04-09T21:38:58.372Z,2.60
2023-04-09T21:41:59.730Z,3.33
2023-04-09T21:45:01.419Z,3.58
2023-04-09T21:48:03.040Z,4.03
2023-04-09T21:51:04.406Z,4.45
2023-04-09T21:54:06.679Z,3.92
2023-04-09T21:57:08.058Z,4.13
2023-04-09T22:00:10.870Z,4.53
2023-04-09T22:03:12.472Z,4.80
2023-04-09T22:06:14.004Z,4.53
2023-04-09T22:09:15.413Z,5.00
2023-04-09T22:12:16.669Z,4.28
2023-04-09T22:15:19.198Z,4.68
2023-04-09T22:18:20.825Z,4.72
2023-04-09T22:21:22.322Z,4.80
2023-04-09T22:24:33.717Z,4.63
2023-04-09T22:27:35.067Z,3.17
2023-04-09T22:30:36.359Z,4.00
2023-04-09T22:33:37.639Z,5.00
2023-04-09T22:36:38.988Z,4.60
2023-04-09T22:39:40.392Z,5.13
2023-04-09T22:42:42.803Z,4.60
2023-04-09T22:45:50.219Z,4.55
2023-04-09T22:48:51.983Z,4.35
2023-04-09T22:51:53.472Z,5.25
2023-04-09T22:54:54.769Z,5.10
2023-04-09T22:57:57.564Z,4.20
2023-04-09T23:00:58.853Z,3.92
2023-04-09T23:04:00.341Z,4.43
2023-04-09T23:07:02.304Z,3.65
2023-04-09T23:10:03.710Z,4.45
2023-04-09T23:13:05.212Z,4.68
2023-04-09T23:16:07.456Z,3.65
2023-04-09T23:19:08.759Z,4.60
2023-04-09T23:22:10.369Z,4.88
2023-04-09T23:25:11.859Z,4.25
2023-04-09T23:28:13.269Z,4.20
2023-04-09T23:31:14.626Z,4.20
2023-04-09T23:34:16.193Z,3.65
2023-04-09T23:37:17.566Z,4.60
2023-04-09T23:40:18.904Z,5.65
2023-04-09T23:43:20.263Z,5.63
2023-04-09T23:46:22.648Z,4.80
2023-04-09T23:49:24.007Z,4.97
2023-04-09T23:52:26.745Z,5.18
2023-04-09T23:55:28.064Z,5.28
2023-04-09T23:58:29.393Z,4.28
